Latest Weather Observations for Warrnambool

IDV60801

Issued at 11:31 pm EDT Monday 2 March 2015 (issued every 30 minutes, with the page automatically refreshed every 10 minutes)

About weather observations | Map of weather stations | Latest weather observations for VIC | Other Formats
Station Details ID: 090186 Name: WARRNAMBOOL AIRPORT NDB Lat: -38.29 Lon: 142.45 Height: 70.8 m
Data from the previous 72 hours. | See also: Recent months at Warrnambool
Date/Time
EDT
Temp
°C
App
Temp
°C
Dew
Point
Rel
Hum
%
Delta-T
°C
Wind Press
QNH
hPa
Press
MSL
hPa
Rain
since 9 am
mm
Dir
 
Spd
km/h
Gust
km/h
Spd
kts
Gust
kts
02/11:30pm 13.4 12.1 11.3 87 1.1 SSW 9 11 5 6 1017.0 1016.9 0.0
02/11:00pm 13.5 12.7 11.0 85 1.3 S 6 7 3 4 1016.8 1016.7 0.0
02/10:30pm 13.9 13.1 10.9 82 1.6 S 6 7 3 4 1016.9 1016.8 0.0
02/10:00pm 14.4 13.5 11.2 81 1.7 S 7 7 4 4 1016.7 1016.6 0.0
02/09:30pm 14.5 13.7 11.1 80 1.8 S 6 7 3 4 1016.5 1016.4 0.0
02/09:00pm 14.9 13.6 11.3 79 1.9 SSW 9 11 5 6 1016.2 1016.1 0.0
02/08:30pm 15.3 14.0 11.1 76 2.2 S 9 9 5 5 1015.9 1015.7 0.0
02/08:00pm 16.0 14.2 10.7 71 2.8 S 11 13 6 7 1015.7 1015.5 0.0
02/07:30pm 16.5 13.5 10.8 69 3.1 S 17 20 9 11 1015.6 1015.4 0.0
02/07:00pm 17.1 13.2 10.7 66 3.4 SSW 22 26 12 14 1015.9 1015.7 0.0
02/06:30pm 17.6 13.2 10.5 63 3.8 SSW 24 32 13 17 1015.5 1015.3 0.0
02/05:30pm 18.8 13.6 10.1 57 4.7 SW 28 35 15 19 1014.7 1014.5 0.0
02/05:00pm 19.3 13.2 9.8 54 5.1 SSW 32 37 17 20 1014.3 1014.1 0.0
02/04:30pm 20.7 14.2 8.0 44 6.6 SSW 32 37 17 20 1014.4 1014.2 0.0
02/04:00pm 21.8 15.3 9.0 44 6.8 SW 33 39 18 21 1014.2 1014.0 0.0
02/03:30pm 23.4 18.5 6.7 34 8.6 SW 22 32 12 17 1014.4 1014.2 0.0
02/03:00pm 24.5 21.6 4.8 28 9.9 WSW 9 20 5 11 1014.8 1014.6 0.0
02/02:30pm 23.9 21.1 5.3 30 9.4 S 9 19 5 10 1014.6 1014.4 0.0
02/02:00pm 23.6 19.8 4.0 28 9.6 NNW 13 20 7 11 1015.3 1015.1 0.0
02/01:30pm 22.5 19.1 5.9 34 8.4 NNE 13 20 7 11 1015.6 1015.4 0.0
02/01:00pm 20.2 16.1 7.9 45 6.4 NNE 19 26 10 14 1016.5 1016.4 0.0
02/12:30pm 19.9 15.8 8.6 48 5.9 NNE 20 28 11 15 1016.7 1016.6 0.0
02/12:00pm 19.4 16.1 9.6 53 5.2 NNE 17 28 9 15 1017.1 1017.0 0.0
02/11:30am 18.2 14.5 9.5 57 4.6 NNE 19 28 10 15 1017.7 1017.6 0.0
02/11:00am 16.8 13.0 9.2 61 3.9 NE 19 26 10 14 1017.7 1017.6 0.0
02/10:30am 14.4 11.7 9.0 70 2.8 NE 13 17 7 9 1018.1 1018.0 0.0
02/10:00am 13.9 11.8 9.9 77 2.1 NE 11 15 6 8 1017.9 1017.8 0.0
02/09:30am 11.5 10.0 9.2 86 1.2 NE 7 9 4 5 1018.5 1018.4 0.0
02/08:30am 9.8 8.4 9.7 99 0.1 N 7 9 4 5 1018.6 1018.5 0.2
02/08:00am 6.3 3.3 6.2 99 0.0 N 11 13 6 7 1018.5 1018.4 0.2
02/07:30am 4.0 1.0 3.9 99 0.0 N 9 11 5 6 1018.5 1018.4 0.2
02/07:00am 3.3 0.7 3.2 99 0.0 N 6 7 3 4 1018.1 1018.0 0.2
02/06:30am 5.4 2.5 2.5 81 1.2 NNE 7 7 4 4 1018.1 1018.0 0.2
02/06:00am 5.5 3.1 5.4 99 0.0 NNE 7 9 4 5 1017.6 1017.5 0.2
02/05:30am 5.4 2.2 5.3 99 0.0 NNE 11 11 6 6 1017.6 1017.5 0.2
02/05:00am 5.4 2.6 5.3 99 0.0 NNE 9 9 5 5 1017.9 1017.8 0.2
02/04:30am 5.0 2.1 4.7 98 0.1 NNE 9 11 5 6 1018.2 1018.1 0.2
02/04:00am 5.3 2.8 4.9 97 0.2 NNE 7 9 4 5 1018.1 1018.0 0.2
02/03:30am 6.6 4.4 6.2 97 0.2 NNE 7 9 4 5 1018.2 1018.1 0.2
02/03:00am 7.5 6.8 7.1 97 0.2 CALM 0 0 0 0 1018.6 1018.5 0.2
02/02:30am 7.2 6.1 6.9 98 0.1 N 2 7 1 4 1019.1 1019.0 0.2
02/02:00am 6.6 4.6 6.2 97 0.2 N 6 7 3 4 1019.3 1019.2 0.2
02/01:30am 6.2 3.5 5.5 95 0.3 NNE 9 11 5 6 1019.3 1019.2 0.2
02/01:00am 6.6 4.3 5.9 95 0.3 N 7 9 4 5 1019.6 1019.5 0.2
02/12:30am 6.8 4.7 5.7 93 0.5 N 6 7 3 4 1019.5 1019.4 0.2
02/12:00am 7.6 5.6 6.1 90 0.7 N 6 7 3 4 1019.8 1019.7 0.2
 
Date/Time
EDT
Temp
°C
App
Temp
°C
Dew
Point
Rel
Hum
%
Delta-T
°C
Wind Press
QNH
hPa
Press
MSL
hPa
Rain
since 9 am
mm
Dir
 
Spd
km/h
Gust
km/h
Spd
kts
Gust
kts
01/11:30pm 8.0 7.1 6.0 87 0.9 CALM 0 0 0 0 1019.8 1019.7 0.2
01/11:00pm 9.8 7.9 6.9 82 1.4 SE 6 7 3 4 1019.6 1019.5 0.2
01/10:30pm 10.1 7.7 7.2 82 1.4 SSE 9 13 5 7 1019.8 1019.7 0.2
01/10:00pm 11.0 8.3 7.3 78 1.8 SSE 11 13 6 7 1019.7 1019.6 0.2
01/09:30pm 12.3 9.4 8.2 76 2.0 SSE 13 17 7 9 1019.3 1019.2 0.2
01/09:00pm 13.2 10.0 8.5 73 2.3 SSE 15 17 8 9 1019.0 1018.9 0.2
01/08:30pm 13.7 10.9 8.5 71 2.6 SSE 13 17 7 9 1018.9 1018.8 0.2
01/08:00pm 14.5 10.7 8.9 69 2.8 S 19 22 10 12 1018.7 1018.6 0.2
01/07:30pm 15.2 11.2 9.1 67 3.1 S 20 24 11 13 1018.4 1018.3 0.2
01/07:00pm 15.7 11.7 9.1 65 3.4 S 20 26 11 14 1018.0 1017.9 0.2
01/06:30pm 16.2 12.2 8.9 62 3.8 SSE 20 28 11 15 1018.0 1017.9 0.2
01/06:00pm 16.5 11.7 9.0 61 3.9 S 24 32 13 17 1017.8 1017.7 0.2
01/05:30pm 17.9 13.0 10.0 60 4.2 S 26 37 14 20 1018.0 1017.9 0.2
01/05:00pm 17.0 11.5 10.6 66 3.4 S 30 37 16 20 1017.8 1017.7 0.2
01/04:30pm 17.3 11.7 10.0 62 3.9 SSW 30 39 16 21 1017.6 1017.5 0.2
01/04:00pm 17.6 12.1 10.7 64 3.7 S 30 39 16 21 1017.7 1017.6 0.2
01/03:30pm 17.6 12.6 10.9 65 3.6 S 28 39 15 21 1017.6 1017.5 0.2
01/03:00pm 18.4 13.0 11.0 62 4.0 SSW 30 43 16 23 1017.3 1017.2 0.2
01/02:30pm 18.3 12.6 11.1 63 3.9 S 32 39 17 21 1017.1 1017.0 0.2
01/02:00pm 18.0 12.3 11.1 64 3.7 S 32 39 17 21 1016.9 1016.8 0.2
01/01:30pm 18.9 13.6 12.4 66 3.6 SSW 32 41 17 22 1016.8 1016.7 0.2
01/01:00pm 19.1 13.8 11.4 61 4.2 SSW 30 37 16 20 1016.7 1016.6 0.2
01/12:30pm 18.4 13.9 12.6 69 3.2 SSW 28 35 15 19 1016.6 1016.5 0.2
01/12:00pm 17.7 12.7 12.2 70 3.0 SSW 30 39 16 21 1016.2 1016.1 0.2
01/11:30am 17.7 13.6 12.6 72 2.8 SSW 26 32 14 17 1015.8 1015.6 0.2
01/11:00am 18.6 14.7 13.2 71 3.1 SSW 26 32 14 17 1015.3 1015.1 0.2
01/10:30am 17.8 14.2 12.9 73 2.8 SSW 24 32 13 17 1015.0 1014.8 0.2
01/10:00am 16.9 14.2 13.4 80 2.0 S 20 26 11 14 1014.3 1014.1 0.2
01/09:30am 15.3 13.7 14.0 92 0.7 SSW 15 19 8 10 1013.9 1013.7 0.2
01/09:00am 15.6 14.8 14.0 90 0.9 WNW 11 17 6 9 1013.2 1013.0 7.6
01/08:30am 14.2 13.6 13.4 95 0.4 WNW 9 13 5 7 1012.6 1012.5 7.6
01/08:00am 13.4 12.7 13.2 99 0.1 W 9 9 5 5 1012.0 1011.9 7.6
01/07:30am 13.3 12.5 12.8 97 0.3 SSW 9 11 5 6 1011.5 1011.4 7.6
01/07:06am 13.8 12.9 13.6 99 0.1 SSW 11 15 6 8 1011.1 1011.0 7.6
01/07:00am 13.8 12.9 13.6 99 0.1 SSW 11 17 6 9 1011.1 1011.0 7.6
01/06:33am 13.9 11.8 13.7 99 0.1 SW 17 20 9 11 1010.5 1010.4 7.6
01/06:30am 13.9 12.2 13.7 99 0.1 SW 15 20 8 11 1010.5 1010.4 7.6
01/06:00am 13.7 12.7 13.4 98 0.2 WSW 11 13 6 7 1010.0 1009.8 7.0
01/05:30am 13.5 11.6 13.0 97 0.3 WNW 15 22 8 12 1009.6 1009.4 6.8
01/05:00am 13.3 12.3 12.4 94 0.5 WNW 9 13 5 7 1009.2 1009.0 6.6
01/04:30am 13.0 11.8 11.7 92 0.7 WNW 9 11 5 6 1008.8 1008.6 6.6
01/04:00am 12.9 11.5 11.0 88 1.0 WSW 9 13 5 7 1008.6 1008.4 6.6
01/03:30am 13.4 11.4 11.5 88 1.0 SW 13 15 7 8 1008.5 1008.3 6.6
01/03:00am 14.6 12.6 12.6 88 1.1 SW 15 17 8 9 1008.5 1008.3 6.6
01/02:30am 13.4 11.4 11.6 89 1.0 SW 13 17 7 9 1008.6 1008.4 6.6
01/02:00am 13.7 11.8 11.7 88 1.1 SW 13 17 7 9 1008.4 1008.2 6.6
01/01:30am 14.6 12.2 12.5 87 1.1 SW 17 22 9 12 1008.4 1008.2 6.6
01/01:00am 14.8 12.0 12.5 86 1.3 SW 19 22 10 12 1008.3 1008.1 6.6
01/12:30am 15.4 13.3 13.6 89 1.0 SW 17 22 9 12 1008.2 1008.0 6.6
01/12:00am 15.6 13.5 13.6 88 1.1 SW 17 20 9 11 1007.9 1007.7 6.6
 
Date/Time
EDT
Temp
°C
App
Temp
°C
Dew
Point
Rel
Hum
%
Delta-T
°C
Wind Press
QNH
hPa
Press
MSL
hPa
Rain
since 9 am
mm
Dir
 
Spd
km/h
Gust
km/h
Spd
kts
Gust
kts
28/11:30pm 15.4 12.6 13.2 87 1.2 SW 20 28 11 15 1007.9 1007.7 6.6
28/11:00pm 15.9 13.1 14.3 90 0.9 SW 22 30 12 16 1007.9 1007.7 6.6
28/10:30pm 16.2 14.0 14.9 92 0.8 SW 20 26 11 14 1007.6 1007.4 6.6
28/10:00pm 16.0 14.0 14.9 93 0.6 SW 19 26 10 14 1007.3 1007.1 6.6
28/09:54pm 16.1 14.2 15.1 94 0.6 SW 19 26 10 14 1007.3 1007.1 6.6
28/09:36pm 16.4 14.6 16.1 98 0.2 SW 20 28 11 15 1007.1 1006.9 6.6
28/09:30pm 16.5 14.4 16.3 99 0.1 SW 22 30 12 16 1007.0 1006.8 6.6
28/09:00pm 16.6 13.1 16.4 99 0.1 SW 30 39 16 21 1006.3 1006.1 6.4
28/08:46pm 17.3 16.1 17.1 99 0.1 WSW 19 22 10 12 1006.0 1005.8 6.2
28/08:39pm 17.3 16.1 17.1 99 0.1 WSW 19 24 10 13 1005.9 1005.7 6.2
28/08:30pm 17.3 15.9 17.1 99 0.1 SW 20 28 11 15 1005.8 1005.6 6.2
28/08:28pm 17.3 15.9 17.1 99 0.1 SW 20 28 11 15 1005.7 1005.5 6.2
28/08:00pm 17.4 16.1 17.2 99 0.1 SW 20 32 11 17 1005.1 1004.9 6.2
28/07:30pm 17.6 16.5 17.4 99 0.1 WSW 19 26 10 14 1005.1 1004.9 6.2
28/07:00pm 17.9 16.4 17.7 99 0.1 SW 22 28 12 15 1004.2 1004.0 6.0
28/06:46pm 18.0 16.5 17.8 99 0.1 SW 22 30 12 16 1004.2 1004.0 5.8
28/06:30pm 18.1 14.2 17.9 99 0.1 WSW 35 46 19 25 1004.9 1004.7 5.0
28/06:22pm 18.3 14.9 18.1 99 0.1 WSW 33 46 18 25 1004.9 1004.7 3.6
28/06:18pm 18.4 16.4 18.2 99 0.1 SW 26 41 14 22 1004.7 1004.5 2.6
28/06:10pm 18.5 16.8 18.2 98 0.2 SW 24 32 13 17 1002.3 1002.1 2.0
28/06:00pm 18.8 17.5 18.1 96 0.4 SSW 22 28 12 15 1002.0 1001.8 1.6
28/05:30pm 20.3 19.5 18.4 89 1.2 SW 20 26 11 14 1002.2 1002.0 1.2
28/05:11pm 19.9 18.9 18.9 94 0.6 SW 22 30 12 16 1002.4 1002.2 1.2
28/05:00pm 19.8 17.6 18.6 93 0.8 SW 28 37 15 20 1002.6 1002.4 1.2
28/04:57pm 20.2 18.1 19.0 93 0.8 SW 28 37 15 20 1002.3 1002.1 1.0
28/04:30pm 23.0 18.8 15.8 64 4.4 SW 32 39 17 21 1002.0 1001.8 0.0
28/04:00pm 23.6 19.1 16.4 64 4.4 SW 35 44 19 24 1002.6 1002.4 0.0
28/03:30pm 24.1 17.7 15.9 60 5.0 SW 44 54 24 29 1002.7 1002.5 0.0
28/03:01pm 27.0 22.8 15.7 50 6.9 SW 32 52 17 28 1002.0 1001.8 0.0
28/03:00pm 28.6 25.0 16.2 47 7.7 SW 30 46 16 25 1001.9 1001.7 0.0
28/02:30pm 30.6 24.6 12.0 32 10.9 WNW 35 54 19 29 1001.9 1001.7 0.0
28/02:04pm 30.3 25.5 11.8 32 10.8 NW 28 46 15 25 1002.0 1001.8 0.0
28/02:00pm 30.4 25.7 11.9 32 10.9 NW 28 41 15 22 1002.1 1001.9 0.0
28/01:30pm 28.5 24.4 12.8 38 9.2 NNW 26 33 14 18 1002.4 1002.2 0.0
28/01:00pm 28.3 25.8 14.2 42 8.5 N 20 35 11 19 1002.7 1002.5 0.0
28/12:30pm 27.8 26.2 16.1 49 7.2 N 19 24 10 13 1003.5 1003.3 0.0
28/12:00pm 24.7 23.1 15.9 58 5.4 NNE 19 22 10 12 1004.0 1003.8 0.0
28/11:30am 23.0 20.9 16.1 65 4.2 N 22 28 12 15 1004.4 1004.2 0.0
28/11:00am 21.9 20.7 16.2 70 3.5 N 17 20 9 11 1004.5 1004.3 0.0
28/10:30am 21.3 19.4 15.8 71 3.3 N 20 28 11 15 1004.5 1004.3 0.0
28/10:00am 21.5 19.8 16.2 72 3.2 N 20 26 11 14 1004.6 1004.4 0.0
28/09:30am 20.3 18.8 16.3 78 2.4 NNE 19 26 10 14 1004.6 1004.4 0.0
28/09:00am 19.6 17.3 15.7 78 2.3 N 22 28 12 15 1004.9 1004.7 0.2
28/08:30am 19.3 16.7 15.0 76 2.5 N 22 28 12 15 1005.7 1005.5 0.0
28/08:00am 17.8 15.3 15.1 84 1.6 N 22 28 12 15 1005.5 1005.3 0.0
28/07:30am 17.9 15.7 15.0 83 1.7 N 20 24 11 13 1004.6 1004.4 0.0
28/07:00am 17.4 15.3 14.7 84 1.6 NNE 19 26 10 14 1004.4 1004.2 0.0
28/06:30am 17.4 15.0 14.3 82 1.8 NNE 20 28 11 15 1004.8 1004.6 0.0
28/06:00am 17.0 14.6 14.5 85 1.4 NNE 20 26 11 14 1004.7 1004.5 0.0
28/05:30am 17.0 14.6 14.3 84 1.5 NE 20 28 11 15 1004.2 1004.0 0.0
28/05:00am 16.9 14.4 14.2 84 1.6 NNE 20 26 11 14 1005.0 1004.8 0.0
28/04:30am 16.8 14.6 14.3 85 1.4 NE 19 24 10 13 1005.2 1005.0 0.0
28/04:00am 16.6 14.7 14.2 86 1.4 NE 17 22 9 12 1005.3 1005.1 0.0
28/03:30am 16.3 15.0 13.6 84 1.5 NE 13 19 7 10 1005.8 1005.6 0.0
28/03:00am 15.8 14.9 12.7 82 1.7 ENE 9 15 5 8 1006.3 1006.1 0.0
28/02:30am 15.6 14.7 12.5 82 1.7 ENE 9 13 5 7 1007.0 1006.8 0.0
28/02:00am 15.6 14.6 12.4 81 1.8 ENE 9 13 5 7 1007.8 1007.6 0.0
28/01:30am 15.3 14.6 11.9 80 1.8 ENE 7 9 4 5 1008.6 1008.4 0.0
28/01:00am 15.1 15.6 11.7 80 1.8 CALM 0 0 0 0 1009.3 1009.1 0.0
28/12:30am 15.3 14.6 11.5 78 2.0 ENE 6 7 3 4 1009.5 1009.3 0.0
28/12:00am 15.1 13.9 11.7 80 1.8 NNE 9 13 5 7 1010.3 1010.2 0.0

Other Formats:

Comma delimited format used in spreadsheet applications
http://www.bom.gov.au/fwo/IDV60801/IDV60801.94837.axf

JavaScript Object Notation format (JSON) in row-major order
http://www.bom.gov.au/fwo/IDV60801/IDV60801.94837.json